Edina, Minnesota
Current Conditions -  °F | °C
As of 10:53 AM on Thursday 27 Nov 2014 (Local Time) from KMSP Reporting Station
Clear Clear  
Wind Chill: -20°   Ceiling: Unl
Heat Index: -15°   Visibility: 10mi
Dew Point: -20°   Wind: 5mph
Humidity: 66%   Direction: 350°N
Pressure: 30.51"   Gusts: NA
Location:  44.91°N, 93.35°W
Report Text: KMSP 271653Z 35004KT 10SM CLR M15/M20 A3051 RMK AO2 SLP353 T11501200
Loading
Personal Weather Stations






























Interactive Weather Map New forecast layout! Learn more

10-Day Weather Forecast

Advertisements
Track Severe Weather on mobile